createdAt,value
2023-08-23T00:02:09.634Z,26.37
2023-08-23T00:07:13.046Z,26.34
2023-08-23T00:12:17.532Z,26.33
2023-08-23T00:17:20.417Z,26.35
2023-08-23T00:22:23.422Z,26.31
2023-08-23T00:27:27.644Z,26.27
2023-08-23T00:32:30.898Z,26.31
2023-08-23T00:37:33.871Z,26.26
2023-08-23T00:42:38.806Z,26.26
2023-08-23T00:47:42.057Z,26.23
2023-08-23T00:52:52.745Z,26.18
2023-08-23T00:57:58.155Z,26.18
2023-08-23T01:03:01.320Z,26.17
2023-08-23T01:08:05.910Z,26.09
2023-08-23T01:13:14.051Z,26.09
2023-08-23T01:18:17.035Z,26.07
2023-08-23T01:23:21.350Z,26.07
2023-08-23T01:28:24.227Z,26.02
2023-08-23T01:33:30.148Z,26.02
2023-08-23T01:38:34.349Z,26.00
2023-08-23T01:43:37.203Z,25.99
2023-08-23T01:48:40.074Z,25.96
2023-08-23T01:53:44.334Z,25.91
2023-08-23T01:58:48.133Z,25.88
2023-08-23T02:03:51.037Z,25.88
2023-08-23T02:08:55.289Z,25.85
2023-08-23T02:13:58.205Z,25.85
2023-08-23T02:19:06.321Z,25.82
2023-08-23T02:24:10.798Z,25.79
2023-08-23T02:29:14.628Z,25.74
2023-08-23T02:34:17.489Z,25.73
2023-08-23T02:39:21.714Z,25.75
2023-08-23T02:44:24.577Z,25.73
2023-08-23T02:49:27.491Z,25.68
2023-08-23T02:54:31.723Z,25.68
2023-08-23T02:59:34.609Z,25.62
2023-08-23T03:04:37.455Z,25.61
2023-08-23T03:09:41.858Z,25.61
2023-08-23T03:14:44.670Z,25.57
2023-08-23T03:19:48.832Z,25.57
2023-08-23T03:24:53.309Z,24.88
2023-08-23T03:29:56.406Z,24.65
2023-08-23T03:34:59.719Z,23.92
2023-08-23T03:40:05.822Z,24.26
2023-08-23T03:45:09.682Z,24.28
2023-08-23T03:50:12.663Z,24.00
2023-08-23T03:55:17.269Z,23.79
2023-08-23T04:00:20.398Z,23.02
2023-08-23T04:05:23.279Z,23.49
2023-08-23T04:10:27.591Z,23.52
2023-08-23T04:15:30.469Z,23.22
2023-08-23T04:20:33.333Z,23.00
2023-08-23T04:25:37.649Z,22.75
2023-08-23T04:30:43.654Z,22.71
2023-08-23T04:35:46.758Z,22.47
2023-08-23T04:40:51.071Z,22.47
2023-08-23T04:45:55.143Z,22.38
2023-08-23T04:50:58.849Z,22.37
2023-08-23T04:56:05.238Z,22.31
2023-08-23T05:01:09.282Z,22.28
2023-08-23T05:06:15.023Z,22.14
2023-08-23T05:11:19.461Z,22.12
2023-08-23T05:16:22.910Z,21.84
2023-08-23T05:21:26.914Z,22.00
2023-08-23T05:26:31.350Z,22.11
2023-08-23T05:31:34.591Z,21.76
2023-08-23T05:36:39.979Z,21.86
2023-08-23T05:41:50.521Z,21.96
2023-08-23T05:46:53.973Z,21.79
2023-08-23T05:51:57.351Z,21.93
2023-08-23T05:57:02.513Z,21.83
2023-08-23T06:02:13.345Z,21.85
2023-08-23T06:07:21.409Z,21.93
2023-08-23T06:12:29.195Z,21.93
2023-08-23T06:17:32.809Z,21.89
2023-08-23T06:22:36.277Z,22.08
2023-08-23T06:27:48.224Z,22.18
2023-08-23T06:32:56.368Z,22.13
2023-08-23T06:38:00.096Z,22.16
2023-08-23T06:43:05.177Z,22.25
2023-08-23T06:48:12.114Z,22.29
2023-08-23T06:53:16.368Z,22.46
2023-08-23T06:58:22.404Z,22.52
2023-08-23T07:03:31.392Z,22.20
2023-08-23T07:08:38.851Z,22.49
2023-08-23T07:13:49.289Z,22.54
2023-08-23T07:18:57.183Z,22.79
2023-08-23T07:24:01.874Z,22.59
2023-08-23T07:29:07.837Z,23.29
2023-08-23T07:34:14.943Z,23.14
2023-08-23T07:39:26.834Z,22.86
2023-08-23T07:44:39.510Z,22.79
2023-08-23T07:49:44.798Z,23.04
2023-08-23T07:54:47.881Z,23.27
2023-08-23T07:59:53.643Z,23.48
2023-08-23T08:04:56.972Z,23.58
2023-08-23T08:10:00.190Z,23.52
2023-08-23T08:15:09.237Z,23.57
2023-08-23T08:20:19.108Z,23.48
2023-08-23T08:25:25.695Z,23.59
2023-08-23T08:30:32.978Z,23.73
2023-08-23T08:35:38.344Z,23.55
2023-08-23T08:40:45.039Z,23.59
2023-08-23T08:45:50.861Z,23.83
2023-08-23T08:50:55.091Z,24.01
2023-08-23T08:56:05.589Z,24.05
2023-08-23T09:01:19.520Z,24.06
2023-08-23T09:06:30.876Z,24.10
2023-08-23T09:11:41.792Z,24.18
2023-08-23T09:16:55.948Z,24.28
2023-08-23T09:22:13.705Z,24.35
2023-08-23T09:27:51.779Z,24.44
2023-08-23T09:33:04.870Z,24.53
2023-08-23T09:38:17.781Z,24.61
2023-08-23T09:43:30.897Z,24.63
2023-08-23T09:48:43.196Z,24.72
2023-08-23T09:53:58.673Z,24.76
2023-08-23T09:59:09.496Z,24.85
2023-08-23T10:04:23.449Z,24.83
2023-08-23T10:09:33.954Z,24.94
2023-08-23T10:14:50.568Z,25.10
2023-08-23T10:20:03.920Z,25.03
2023-08-23T10:25:23.068Z,24.89
2023-08-23T10:30:35.706Z,25.02
2023-08-23T10:35:53.247Z,25.11
2023-08-23T10:41:12.005Z,24.91
2023-08-23T10:46:26.804Z,25.19
2023-08-23T10:51:39.966Z,25.32
2023-08-23T10:56:52.076Z,25.59
2023-08-23T11:02:05.139Z,25.74
2023-08-23T11:07:19.375Z,25.74
2023-08-23T11:12:35.072Z,25.86
2023-08-23T11:17:47.873Z,25.79
2023-08-23T11:23:05.601Z,25.89
2023-08-23T11:28:21.692Z,26.00
2023-08-23T11:33:45.536Z,26.09
2023-08-23T11:38:57.239Z,26.18
2023-08-23T11:44:13.476Z,26.30
2023-08-23T11:49:24.262Z,26.37
2023-08-23T11:54:36.052Z,26.52
2023-08-23T11:59:47.027Z,26.56
2023-08-23T12:05:01.065Z,26.74
2023-08-23T12:10:17.915Z,26.78
2023-08-23T12:15:28.372Z,26.73
2023-08-23T12:20:38.667Z,26.68
2023-08-23T12:25:50.940Z,26.61
2023-08-23T12:30:59.614Z,26.66
2023-08-23T12:36:13.335Z,26.72
2023-08-23T12:41:21.165Z,26.74
2023-08-23T12:46:24.400Z,26.79
2023-08-23T12:51:28.010Z,26.92
2023-08-23T12:56:32.665Z,27.06
2023-08-23T13:01:35.962Z,27.18
2023-08-23T13:06:39.289Z,27.36
2023-08-23T13:11:43.968Z,27.57
2023-08-23T13:16:47.567Z,27.67
2023-08-23T13:21:50.799Z,27.94
2023-08-23T13:26:55.076Z,27.93
2023-08-23T13:32:00.063Z,28.11
2023-08-23T13:37:06.680Z,28.33
2023-08-23T13:42:11.487Z,28.46
2023-08-23T13:47:14.784Z,28.43
2023-08-23T13:52:18.068Z,28.66
2023-08-23T13:57:22.412Z,28.76
2023-08-23T14:02:25.412Z,28.88
2023-08-23T14:07:29.096Z,29.05
2023-08-23T14:12:34.215Z,29.19
2023-08-23T14:17:37.708Z,29.11
2023-08-23T14:22:40.711Z,29.06
2023-08-23T14:27:45.611Z,29.05
2023-08-23T14:32:50.262Z,29.06
2023-08-23T14:37:53.425Z,29.10
2023-08-23T14:42:57.722Z,29.15
2023-08-23T14:48:00.816Z,29.10
2023-08-23T14:53:03.864Z,29.16
2023-08-23T14:58:08.940Z,29.17
2023-08-23T15:03:12.892Z,29.17
2023-08-23T15:08:17.863Z,29.12
2023-08-23T15:13:23.439Z,29.10
2023-08-23T15:18:26.572Z,29.00
2023-08-23T15:23:30.078Z,29.03
2023-08-23T15:28:40.553Z,29.00
2023-08-23T15:33:50.551Z,29.01
2023-08-23T15:38:53.709Z,28.97
2023-08-23T15:43:58.102Z,28.92
2023-08-23T15:49:01.607Z,28.90
2023-08-23T15:54:04.934Z,28.90
2023-08-23T15:59:11.573Z,28.88
2023-08-23T16:04:16.228Z,28.91
2023-08-23T16:09:19.387Z,28.85
2023-08-23T16:14:24.217Z,28.83
2023-08-23T16:19:27.337Z,28.76
2023-08-23T16:24:32.187Z,28.68
2023-08-23T16:29:37.033Z,28.57
2023-08-23T16:34:40.720Z,28.45
2023-08-23T16:39:43.860Z,28.41
2023-08-23T16:44:48.710Z,28.32
2023-08-23T16:49:52.135Z,28.29
2023-08-23T16:54:55.482Z,28.20
2023-08-23T17:00:00.526Z,28.13
2023-08-23T17:05:04.112Z,28.06
2023-08-23T17:10:08.373Z,28.06
2023-08-23T17:15:17.237Z,28.01
2023-08-23T17:20:21.633Z,27.93
2023-08-23T17:25:24.605Z,27.87
2023-08-23T17:30:30.041Z,27.82
2023-08-23T17:35:33.171Z,27.75
2023-08-23T17:40:39.608Z,27.77
2023-08-23T17:45:51.630Z,27.76
2023-08-23T17:50:58.112Z,27.76
2023-08-23T17:56:01.890Z,27.75
2023-08-23T18:06:25.736Z,27.77
2023-08-23T18:11:32.463Z,27.71
2023-08-23T18:16:37.560Z,27.67
2023-08-23T18:21:42.697Z,27.63
2023-08-23T18:26:46.370Z,27.61
2023-08-23T18:31:50.122Z,27.55
2023-08-23T18:36:54.847Z,27.52
2023-08-23T18:41:57.859Z,27.48
2023-08-23T18:47:00.893Z,27.46
2023-08-23T18:52:06.261Z,27.42
2023-08-23T18:57:09.984Z,27.41
2023-08-23T19:02:14.608Z,27.34
2023-08-23T19:07:19.594Z,27.38
2023-08-23T19:12:22.654Z,27.37
2023-08-23T19:17:26.083Z,27.36
2023-08-23T19:22:30.430Z,27.37
2023-08-23T19:27:33.902Z,27.35
2023-08-23T19:32:37.992Z,27.34
2023-08-23T19:37:45.361Z,27.33
2023-08-23T19:42:49.782Z,27.32
2023-08-23T19:47:54.074Z,27.31
2023-08-23T19:52:58.916Z,27.28
2023-08-23T19:58:03.616Z,27.30
2023-08-23T20:03:07.664Z,27.30
2023-08-23T20:08:12.700Z,27.29
2023-08-23T20:13:21.070Z,27.30
2023-08-23T20:18:36.041Z,27.19
2023-08-23T20:23:50.550Z,27.02
2023-08-23T20:29:05.450Z,26.96
2023-08-23T20:34:17.552Z,26.89
2023-08-23T20:39:31.422Z,26.87
2023-08-23T20:44:42.008Z,26.81
2023-08-23T20:49:50.256Z,26.72
2023-08-23T20:55:02.054Z,26.70
2023-08-23T21:00:17.067Z,26.68
2023-08-23T21:05:27.826Z,26.65
2023-08-23T21:10:33.979Z,26.62
2023-08-23T21:15:47.790Z,26.59
2023-08-23T21:20:59.364Z,26.56
2023-08-23T21:26:12.996Z,26.55
2023-08-23T21:31:19.742Z,26.48
2023-08-23T21:36:26.907Z,26.46
2023-08-23T21:41:32.425Z,26.43
2023-08-23T21:46:35.629Z,26.44
2023-08-23T21:51:41.600Z,26.41
2023-08-23T21:56:47.584Z,26.37
2023-08-23T22:01:50.633Z,26.33
2023-08-23T22:06:53.782Z,26.29
2023-08-23T22:11:58.738Z,26.23
2023-08-23T22:17:01.644Z,26.18
2023-08-23T22:22:04.586Z,26.18
2023-08-23T22:27:10.243Z,26.10
2023-08-23T22:32:13.679Z,26.09
2023-08-23T22:37:16.641Z,26.07
2023-08-23T22:42:21.803Z,26.10
2023-08-23T22:47:26.164Z,26.22
2023-08-23T22:52:29.081Z,26.24
2023-08-23T22:57:33.601Z,26.23
2023-08-23T23:02:40.047Z,26.20
2023-08-23T23:07:43.185Z,26.18
2023-08-23T23:12:47.466Z,26.14
2023-08-23T23:17:50.884Z,26.02
2023-08-23T23:22:53.959Z,25.84
2023-08-23T23:27:58.520Z,25.91
2023-08-23T23:33:01.542Z,25.93
2023-08-23T23:38:05.152Z,25.87
2023-08-23T23:43:09.410Z,25.87
2023-08-23T23:48:13.843Z,25.76
2023-08-23T23:53:16.865Z,25.74
2023-08-23T23:58:21.884Z,25.76
